Aeroporto :
LOGIN :

Iscrizione | Disclaimer

   EN    FR    IT 

 










Sommario :    VFR   VFR Marginale   IFR   IFR Intensivo   IFR Molto Intensivo
Visibilità : 
Base nubi : 
>= 8 km
>= 3000ft
5 / 8 km
1000 / 3000 ft
1500m / 5 km
500 / 1000 ft
800 / 1500m
200 / 500 ft
< 800m
< 200 ft
Simboli :   Temporali  Nebbia  Neve Forte  Precipitazioni Forti  Vento > 20 kt
SIGMETs :   Varie  Temporali  Ghiacco  Turbolenza  Onda orograficha  Ceneri Vulcaniche






- Altitudine del aeroporto : 978 ft
- Codice IATA : LNZ


LOWL - Linz

ULTIMO METAR :
  • 231350Z AUTO 10013KT 070V140 9999 FEW028 09/02 Q1012 NOSIG

METARs OBSOLETI :
  • 231320Z AUTO 10012KT 060V140 9999 FEW024 08/02 Q1013 NOSIG
  • 231250Z AUTO 10009KT 060V170 9999 FEW022 08/03 Q1013 NOSIG
  • 231220Z AUTO 11011KT 9999 FEW019 BKN024 08/03 Q1013 NOSIG
  • 231150Z AUTO 11006KT 070V150 9999 FEW018 BKN020 08/03 Q1014 NOSIG
  • 231120Z AUTO 10008KT 070V150 9999 FEW018 BKN020 07/03 Q1014 NOSIG
  • 231050Z AUTO 10008KT 060V130 9999 FEW018 BKN022 06/02 Q1014 NOSIG
  • 231020Z AUTO 10010KT 070V150 9999 FEW018 SCT022 BKN026 06/02 Q1015 NOSIG
  • 230950Z AUTO 10010KT 070V130 9999 FEW018 OVC026 06/02 Q1015 NOSIG
  • 230920Z AUTO 12007KT 070V160 9999 BKN028 05/02 Q1015 NOSIG

TAF TAF LOWL
Valido dal 23 a 12 ore il 24 a 12 ore UTC


231115Z 2312/2412 10010KT 9999 SCT030 BKN050 TX06/2412Z TN04/2404Z
TEMPO 2312/2316 09015G25KT
TEMPO 2319/2408 -RA BKN012
BECMG 2319/2321 27005KT



MetMap, La meteo Aeronautica in un colpo d'occhio ! - Copyright ORBIFLY Dicembre 2007 - Disclaimer

ORBIFLY MET'MAP TEAM :

Programmazione e sviluppo : Alexandra Zaïnal
Concezione : Baudouin d'Aumeries
Supporto tecnico e logistico : Manuel Goepfert
Aiuto : Marc-Olivier Méhu
Aiuto per la traduzione : Arnaldo La Scala




FONTI E CREDITI :

   NOAA